Terminal Aerodrome Forecast
Issued by NWS Jackson, KY

Home | Current Version | Previous Version | Text Only | Print | Product List | Glossary On
Versions: 1 2 3 4 5 6 7 8 9 10 11 12 13 14 15 16 17 18
000
FTUS43 KJKL 241909 AAB
TAFJKL
TAF AMD
KJKL 241909Z 2419/2518 23006KT P6SM VCSH BKN030 BKN120
      TEMPO 2419/2421 BKN005 OVC030
     FM242300 20008G16KT P6SM SCT060 BKN150
     FM251000 23015G30KT 2SM SHRA BR OVC020
     FM251400 26012G20KT 6SM BR BKN020
     FM251700 26007KT P6SM BKN200=

USA.gov is the U.S. government's official web portal to all federal, state and local government web resources and services.